Airfield :
LOGIN :

Register | Disclaimer

   EN    FR    IT 

 










Legend :    VFR   Marginal VFR   IFR   Intensive IFR   Very Intensive IFR
Visi :
Ceiling :
>= 8 km
>= 3000ft
5 to 8 km
1000 to 3000 ft
1500m to 5 km
500 to 1000 ft
800 to 1500m
200 to 500 ft
< 800m
< 200 ft
Symbols :   Thunderstorms  Fog  Heavy snow  Heavy precipitations  Wind > 20 kt
SIGMETs :     Misc.  Thunderstorms  Icing  Turbulence  Mountain Waves  Volcanic Ashes






- Airport Elevation : 386 ft
- IATA code : QOE


ETNN - Nörvenich Airforce Base

CURRENT METAR :
  • 011320Z 02008KT 9000 FEW007 SCT010 BKN018 06/03 Q1025 WHT GRN TEMPO WHT

EXPIRED METARs :
  • 011220Z 36008KT 7000 FEW006 SCT008 BKN011 06/04 Q1026 GRN GRN TEMPO WHT
  • 011120Z 32004KT 6000 FEW005 SCT006 BKN010 06/04 Q1026 GRN GRN TEMPO WHT

TAF TAF ETNN
Valid from the 01 at 12:00 until the 01 at 21:00 UTC


011127Z 0112/0121 32005KT 5000 BR BKN008 BKN012
TEMPO 0112/0118 36005KT 8000 NSW SCT008 BKN015
PROB30 0119/0121 02004KT 9999 NSW SCT025 BY ETGL



MET'MAP, your aeronautical weather chart ! - Copyright ORBIFLY December 2007 - Disclaimer

ORBIFLY MET'MAP TEAM :

Programming & Development : Alexandra Zaïnal
Original concept : Baudouin d'Aumeries
Technical & hardware support : Manuel Goepfert
Assistance : Marc-Olivier Méhu




SOURCES & CREDITS :

   NOAA